Airfield :
LOGIN :

Register | Disclaimer

   EN    FR    IT 

 










Legend :    VFR   Marginal VFR   IFR   Intensive IFR   Very Intensive IFR
Visi :
Ceiling :
>= 8 km
>= 3000ft
5 to 8 km
1000 to 3000 ft
1500m to 5 km
500 to 1000 ft
800 to 1500m
200 to 500 ft
< 800m
< 200 ft
Symbols :   Thunderstorms  Fog  Heavy snow  Heavy precipitations  Wind > 20 kt
SIGMETs :     Misc.  Thunderstorms  Icing  Turbulence  Mountain Waves  Volcanic Ashes







- Airport Elevation : 622 ft
- IATA code : BRS
- Download approach charts


EGGD - Bristol Int.

CURRENT METAR :
  • 222320Z AUTO 26016KT 9999 OVC014 14/11 Q1016

EXPIRED METARs :
  • 222250Z AUTO 26016KT 9999 OVC012 14/11 Q1016
  • 222220Z AUTO 25012KT 9999 OVC010 14/12 Q1016
  • 222150Z AUTO 27012KT 9999 OVC014 14/11 Q1016
  • 222120Z AUTO 27017KT 9999 OVC012 14/11 Q1016
  • 222050Z AUTO 26014KT 9999 OVC012 14/11 Q1016

TAF TAF EGGD
Valid from the 23 at 00:00 until the 24 at 00:00 UTC


222258Z 2300/2324 25015KT 9999 BKN012
TEMPO 2300/2306 BKN020
BECMG 2306/2309 SCT020
TEMPO 2306/2318 26018G28KT
BECMG 2319/2322 BKN010
TEMPO 2320/2324 6000 RADZ BKN005
ATIS : +44 1275 473 666
No reported NOTAMs for that airfield.



MET'MAP, your aeronautical weather chart ! - Copyright ORBIFLY December 2007 - Disclaimer

ORBIFLY MET'MAP TEAM :

Programming & Development : Alexandra Zaïnal
Concept & Development : Baudouin d'Aumeries
Co-Development & Prog : Marc-Olivier Méhu
Technical & hardware support : Manuel Goepfert

Contact : metmap@orbifly.com




SOURCES & CREDITS :

   NOAA